KTHA

Tullahoma Regional Arpt / Wm Northern Field Airport

Tullahoma, Tennessee, USA
METAR KTHA 231055Z AUTO 19003KT 10SM FEW043 04/M02 A2989 RMK A01
Observed Flight Rules
Jan-23 @ 10:55 UTC (an hour ago) Visual Flight Rules
Wind Visibility Clouds
190° at 3 knots 10 miles
  • Few at 4,300' AGL
Temperatures Readings
Current 4°C / 39°F
Dewpoint -2°C / 28°F
Humidity 65%
Altimeter 29.89" Hg
Pressure 1012 hPa
Elevation 331
METAR KTHA 231055Z AUTO 19003KT 10SM FEW043 04/M02 A2989 RMK A01
Observed Flight Rules
Jan-23 @ 10:55 UTC
(an hour ago)
VFR
Wind Visibility
190° at 3 knots 10 miles
Clouds
  • Few at 4,300' AGL
Temperature Dewpoint
4°C / 39°F -2°C / 28°F
Humidity Altimeter Pressure
65% 29.89" Hg 1012 hPa